sensor_id;sensor_type;location;lat;lon;timestamp;P1;durP1;ratioP1;P2;durP2;ratioP2
13319;SDS011;59599;47.608;12.190;2023-12-28T05:01:01;6.10;;;3.57;;
13319;SDS011;59599;47.608;12.190;2023-12-28T05:03:27;6.33;;;4.07;;
13319;SDS011;59599;47.608;12.190;2023-12-28T05:05:53;7.13;;;3.60;;
13319;SDS011;59599;47.608;12.190;2023-12-28T05:08:18;6.53;;;4.10;;
13319;SDS011;59599;47.608;12.190;2023-12-28T05:10:44;7.10;;;3.70;;
13319;SDS011;59599;47.608;12.190;2023-12-28T05:13:10;5.27;;;3.60;;
13319;SDS011;59599;47.608;12.190;2023-12-28T05:15:36;7.37;;;3.77;;
13319;SDS011;59599;47.608;12.190;2023-12-28T05:18:02;5.23;;;3.37;;
13319;SDS011;59599;47.608;12.190;2023-12-28T05:20:29;6.10;;;3.67;;
13319;SDS011;59599;47.608;12.190;2023-12-28T05:22:55;6.30;;;3.50;;
13319;SDS011;59599;47.608;12.190;2023-12-28T05:25:22;11.20;;;4.20;;
13319;SDS011;59599;47.608;12.190;2023-12-28T05:27:48;6.97;;;3.53;;
13319;SDS011;59599;47.608;12.190;2023-12-28T05:30:14;6.97;;;4.10;;
13319;SDS011;59599;47.608;12.190;2023-12-28T05:32:40;5.97;;;3.53;;
13319;SDS011;59599;47.608;12.190;2023-12-28T05:35:23;7.90;;;3.53;;
13319;SDS011;59599;47.608;12.190;2023-12-28T05:38:12;7.50;;;4.47;;
13319;SDS011;59599;47.608;12.190;2023-12-28T05:40:39;6.63;;;4.20;;
13319;SDS011;59599;47.608;12.190;2023-12-28T05:43:05;6.17;;;4.17;;
13319;SDS011;59599;47.608;12.190;2023-12-28T05:45:32;9.20;;;4.60;;
13319;SDS011;59599;47.608;12.190;2023-12-28T05:48:00;11.27;;;4.50;;
13319;SDS011;59599;47.608;12.190;2023-12-28T05:50:26;8.03;;;4.27;;
13319;SDS011;59599;47.608;12.190;2023-12-28T05:52:58;6.00;;;4.13;;
13319;SDS011;59599;47.608;12.190;2023-12-28T05:55:40;6.67;;;4.37;;
13319;SDS011;59599;47.608;12.190;2023-12-28T05:58:06;6.23;;;3.83;;
13319;SDS011;59599;47.608;12.190;2023-12-28T06:00:32;5.30;;;3.33;;
13319;SDS011;59599;47.608;12.190;2023-12-28T06:02:58;7.33;;;4.27;;
13319;SDS011;59599;47.608;12.190;2023-12-28T06:05:24;7.73;;;4.23;;
13319;SDS011;59599;47.608;12.190;2023-12-28T06:07:50;7.77;;;4.70;;
13319;SDS011;59599;47.608;12.190;2023-12-28T06:10:16;8.00;;;4.13;;
13319;SDS011;59599;47.608;12.190;2023-12-28T06:12:42;5.87;;;3.77;;
13319;SDS011;59599;47.608;12.190;2023-12-28T06:15:08;7.07;;;4.13;;
13319;SDS011;59599;47.608;12.190;2023-12-28T06:17:34;7.57;;;4.30;;
13319;SDS011;59599;47.608;12.190;2023-12-28T06:20:00;6.27;;;3.80;;
13319;SDS011;59599;47.608;12.190;2023-12-28T06:22:26;5.20;;;3.70;;
13319;SDS011;59599;47.608;12.190;2023-12-28T06:24:55;6.87;;;3.93;;
13319;SDS011;59599;47.608;12.190;2023-12-28T06:27:22;6.37;;;4.00;;
13319;SDS011;59599;47.608;12.190;2023-12-28T06:29:48;5.90;;;3.97;;
13319;SDS011;59599;47.608;12.190;2023-12-28T06:32:14;7.57;;;4.10;;
13319;SDS011;59599;47.608;12.190;2023-12-28T06:34:40;6.23;;;3.87;;
13319;SDS011;59599;47.608;12.190;2023-12-28T06:37:06;7.27;;;4.40;;
13319;SDS011;59599;47.608;12.190;2023-12-28T06:39:32;7.10;;;3.80;;
13319;SDS011;59599;47.608;12.190;2023-12-28T06:41:58;4.73;;;3.70;;
13319;SDS011;59599;47.608;12.190;2023-12-28T06:44:24;6.33;;;3.83;;
13319;SDS011;59599;47.608;12.190;2023-12-28T06:46:50;6.23;;;4.10;;
13319;SDS011;59599;47.608;12.190;2023-12-28T06:49:16;7.03;;;4.10;;
13319;SDS011;59599;47.608;12.190;2023-12-28T06:51:42;6.20;;;3.80;;
13319;SDS011;59599;47.608;12.190;2023-12-28T06:54:10;9.63;;;5.30;;
13319;SDS011;59599;47.608;12.190;2023-12-28T06:56:36;5.97;;;4.57;;
13319;SDS011;59599;47.608;12.190;2023-12-28T06:59:02;6.93;;;4.37;;
13319;SDS011;59599;47.608;12.190;2023-12-28T07:01:28;10.50;;;5.13;;
13319;SDS011;59599;47.608;12.190;2023-12-28T07:03:54;10.90;;;6.40;;
13319;SDS011;59599;47.608;12.190;2023-12-28T07:06:20;11.73;;;6.03;;
13319;SDS011;59599;47.608;12.190;2023-12-28T07:08:46;11.83;;;6.07;;
13319;SDS011;59599;47.608;12.190;2023-12-28T07:11:12;13.50;;;6.03;;
13319;SDS011;59599;47.608;12.190;2023-12-28T07:13:38;10.50;;;5.50;;
13319;SDS011;59599;47.608;12.190;2023-12-28T07:16:04;7.57;;;4.93;;
13319;SDS011;59599;47.608;12.190;2023-12-28T07:18:32;8.10;;;4.90;;
13319;SDS011;59599;47.608;12.190;2023-12-28T07:20:58;6.90;;;4.63;;
13319;SDS011;59599;47.608;12.190;2023-12-28T07:23:25;6.57;;;4.27;;
13319;SDS011;59599;47.608;12.190;2023-12-28T07:25:51;8.20;;;4.77;;
13319;SDS011;59599;47.608;12.190;2023-12-28T07:28:17;10.07;;;6.63;;
13319;SDS011;59599;47.608;12.190;2023-12-28T07:30:43;6.73;;;4.47;;
13319;SDS011;59599;47.608;12.190;2023-12-28T07:33:09;8.67;;;5.70;;
13319;SDS011;59599;47.608;12.190;2023-12-28T07:35:35;10.80;;;8.00;;
13319;SDS011;59599;47.608;12.190;2023-12-28T07:38:01;7.80;;;5.77;;
13319;SDS011;59599;47.608;12.190;2023-12-28T07:40:27;7.57;;;5.10;;
13319;SDS011;59599;47.608;12.190;2023-12-28T07:42:53;7.40;;;5.40;;
13319;SDS011;59599;47.608;12.190;2023-12-28T07:45:19;7.67;;;5.80;;
13319;SDS011;59599;47.608;12.190;2023-12-28T07:47:48;6.93;;;4.57;;
13319;SDS011;59599;47.608;12.190;2023-12-28T07:50:15;6.13;;;4.40;;
13319;SDS011;59599;47.608;12.190;2023-12-28T07:52:42;8.33;;;5.87;;
13319;SDS011;59599;47.608;12.190;2023-12-28T07:55:08;8.63;;;6.50;;
13319;SDS011;59599;47.608;12.190;2023-12-28T07:57:34;8.17;;;5.43;;
13319;SDS011;59599;47.608;12.190;2023-12-28T08:00:02;8.60;;;5.90;;
13319;SDS011;59599;47.608;12.190;2023-12-28T08:02:28;7.57;;;5.47;;
13319;SDS011;59599;47.608;12.190;2023-12-28T08:04:54;9.23;;;6.33;;
13319;SDS011;59599;47.608;12.190;2023-12-28T08:07:20;12.50;;;8.03;;
13319;SDS011;59599;47.608;12.190;2023-12-28T08:09:46;10.17;;;7.20;;
13319;SDS011;59599;47.608;12.190;2023-12-28T08:12:12;7.80;;;5.87;;
13319;SDS011;59599;47.608;12.190;2023-12-28T08:14:38;11.33;;;6.40;;
13319;SDS011;59599;47.608;12.190;2023-12-28T08:17:04;10.33;;;5.97;;
13319;SDS011;59599;47.608;12.190;2023-12-28T08:19:30;8.60;;;5.70;;
13319;SDS011;59599;47.608;12.190;2023-12-28T08:21:56;9.13;;;5.67;;
13319;SDS011;59599;47.608;12.190;2023-12-28T08:24:21;12.03;;;8.07;;
13319;SDS011;59599;47.608;12.190;2023-12-28T08:26:47;11.57;;;7.37;;
13319;SDS011;59599;47.608;12.190;2023-12-28T08:29:13;8.67;;;5.50;;
13319;SDS011;59599;47.608;12.190;2023-12-28T08:31:39;8.97;;;5.50;;
13319;SDS011;59599;47.608;12.190;2023-12-28T08:34:05;11.83;;;5.57;;
13319;SDS011;59599;47.608;12.190;2023-12-28T08:36:31;7.50;;;4.60;;
13319;SDS011;59599;47.608;12.190;2023-12-28T08:38:57;6.77;;;4.20;;
13319;SDS011;59599;47.608;12.190;2023-12-28T08:41:23;5.83;;;4.10;;
13319;SDS011;59599;47.608;12.190;2023-12-28T08:43:49;7.17;;;4.37;;
13319;SDS011;59599;47.608;12.190;2023-12-28T08:46:15;11.00;;;5.23;;
13319;SDS011;59599;47.608;12.190;2023-12-28T08:48:41;6.53;;;4.40;;
13319;SDS011;59599;47.608;12.190;2023-12-28T08:51:07;12.60;;;4.80;;
13319;SDS011;59599;47.608;12.190;2023-12-28T08:53:34;9.27;;;5.40;;
13319;SDS011;59599;47.608;12.190;2023-12-28T08:56:00;7.70;;;4.97;;
13319;SDS011;59599;47.608;12.190;2023-12-28T08:58:27;7.87;;;4.80;;
13319;SDS011;59599;47.608;12.190;2023-12-28T09:00:53;6.00;;;4.30;;
13319;SDS011;59599;47.608;12.190;2023-12-28T09:03:18;6.57;;;4.37;;
13319;SDS011;59599;47.608;12.190;2023-12-28T09:05:44;7.33;;;4.83;;
13319;SDS011;59599;47.608;12.190;2023-12-28T09:08:10;7.60;;;4.83;;
13319;SDS011;59599;47.608;12.190;2023-12-28T09:10:37;6.87;;;4.67;;
13319;SDS011;59599;47.608;12.190;2023-12-28T09:13:04;6.37;;;4.60;;
13319;SDS011;59599;47.608;12.190;2023-12-28T09:15:30;7.33;;;4.00;;
13319;SDS011;59599;47.608;12.190;2023-12-28T09:17:57;6.50;;;4.47;;
13319;SDS011;59599;47.608;12.190;2023-12-28T09:20:23;6.77;;;4.00;;
13319;SDS011;59599;47.608;12.190;2023-12-28T09:22:49;6.37;;;4.10;;
13319;SDS011;59599;47.608;12.190;2023-12-28T09:25:18;5.80;;;3.80;;
13319;SDS011;59599;47.608;12.190;2023-12-28T09:27:44;4.47;;;3.43;;
13319;SDS011;59599;47.608;12.190;2023-12-28T09:30:10;4.93;;;4.00;;
13319;SDS011;59599;47.608;12.190;2023-12-28T09:32:36;6.37;;;4.47;;
13319;SDS011;59599;47.608;12.190;2023-12-28T09:35:02;6.47;;;4.13;;
13319;SDS011;59599;47.608;12.190;2023-12-28T09:37:28;6.63;;;4.37;;
13319;SDS011;59599;47.608;12.190;2023-12-28T09:39:54;6.20;;;4.17;;
13319;SDS011;59599;47.608;12.190;2023-12-28T09:42:23;7.30;;;4.50;;
13319;SDS011;59599;47.608;12.190;2023-12-28T09:44:51;7.73;;;4.40;;
13319;SDS011;59599;47.608;12.190;2023-12-28T09:47:18;4.87;;;3.73;;
13319;SDS011;59599;47.608;12.190;2023-12-28T09:49:44;5.63;;;4.27;;
13319;SDS011;59599;47.608;12.190;2023-12-28T09:52:11;4.70;;;3.60;;
13319;SDS011;59599;47.608;12.190;2023-12-28T09:54:37;6.13;;;4.03;;
13319;SDS011;59599;47.608;12.190;2023-12-28T09:57:04;6.03;;;4.37;;
13319;SDS011;59599;47.608;12.190;2023-12-28T09:59:30;9.73;;;4.77;;
13319;SDS011;59599;47.608;12.190;2023-12-28T10:01:57;8.57;;;5.23;;
13319;SDS011;59599;47.608;12.190;2023-12-28T10:04:24;9.77;;;4.20;;
13319;SDS011;59599;47.608;12.190;2023-12-28T10:06:50;6.20;;;3.70;;
13319;SDS011;59599;47.608;12.190;2023-12-28T10:09:16;4.90;;;3.47;;
13319;SDS011;59599;47.608;12.190;2023-12-28T10:11:44;5.67;;;3.50;;
13319;SDS011;59599;47.608;12.190;2023-12-28T10:14:10;4.67;;;3.00;;
13319;SDS011;59599;47.608;12.190;2023-12-28T10:16:37;6.63;;;3.20;;
13319;SDS011;59599;47.608;12.190;2023-12-28T10:19:06;4.27;;;2.80;;
13319;SDS011;59599;47.608;12.190;2023-12-28T10:21:31;5.87;;;3.10;;
13319;SDS011;59599;47.608;12.190;2023-12-28T10:23:57;5.03;;;3.53;;
13319;SDS011;59599;47.608;12.190;2023-12-28T10:26:23;7.23;;;4.00;;
13319;SDS011;59599;47.608;12.190;2023-12-28T10:28:49;4.40;;;3.17;;
13319;SDS011;59599;47.608;12.190;2023-12-28T10:31:15;6.50;;;3.00;;
13319;SDS011;59599;47.608;12.190;2023-12-28T10:33:41;6.70;;;3.47;;
13319;SDS011;59599;47.608;12.190;2023-12-28T10:36:10;4.27;;;2.60;;
13319;SDS011;59599;47.608;12.190;2023-12-28T10:38:37;3.87;;;2.57;;
13319;SDS011;59599;47.608;12.190;2023-12-28T10:41:07;4.57;;;2.47;;
13319;SDS011;59599;47.608;12.190;2023-12-28T10:43:36;4.53;;;2.50;;
13319;SDS011;59599;47.608;12.190;2023-12-28T10:46:04;4.10;;;2.67;;
13319;SDS011;59599;47.608;12.190;2023-12-28T10:48:32;4.20;;;2.17;;
13319;SDS011;59599;47.608;12.190;2023-12-28T10:51:01;3.30;;;2.00;;
13319;SDS011;59599;47.608;12.190;2023-12-28T10:56:00;5.27;;;2.93;;
13319;SDS011;59599;47.608;12.190;2023-12-28T11:01:37;5.03;;;3.43;;
13319;SDS011;59599;47.608;12.190;2023-12-28T11:04:11;3.80;;;2.97;;
13319;SDS011;59599;47.608;12.190;2023-12-28T11:06:41;4.10;;;2.30;;
13319;SDS011;59599;47.608;12.190;2023-12-28T11:09:08;3.13;;;1.83;;
13319;SDS011;59599;47.608;12.190;2023-12-28T11:11:36;3.37;;;2.30;;
13319;SDS011;59599;47.608;12.190;2023-12-28T11:14:03;2.40;;;2.00;;
13319;SDS011;59599;47.608;12.190;2023-12-28T11:16:29;2.53;;;2.03;;
13319;SDS011;59599;47.608;12.190;2023-12-28T11:18:57;4.00;;;2.70;;
13319;SDS011;59599;47.608;12.190;2023-12-28T11:21:23;5.67;;;3.40;;
13319;SDS011;59599;47.608;12.190;2023-12-28T11:23:50;4.87;;;3.20;;
13319;SDS011;59599;47.608;12.190;2023-12-28T11:26:16;6.20;;;3.73;;
13319;SDS011;59599;47.608;12.190;2023-12-28T11:28:43;6.40;;;3.23;;
13319;SDS011;59599;47.608;12.190;2023-12-28T11:31:09;4.90;;;3.57;;
13319;SDS011;59599;47.608;12.190;2023-12-28T11:33:48;3.63;;;2.60;;
13319;SDS011;59599;47.608;12.190;2023-12-28T11:36:21;4.10;;;2.93;;
13319;SDS011;59599;47.608;12.190;2023-12-28T11:38:48;4.90;;;3.43;;
13319;SDS011;59599;47.608;12.190;2023-12-28T11:41:19;3.90;;;2.80;;
13319;SDS011;59599;47.608;12.190;2023-12-28T11:43:51;4.33;;;2.60;;
13319;SDS011;59599;47.608;12.190;2023-12-28T11:46:18;3.47;;;2.57;;
13319;SDS011;59599;47.608;12.190;2023-12-28T11:48:44;3.73;;;2.90;;
13319;SDS011;59599;47.608;12.190;2023-12-28T11:51:10;3.83;;;2.90;;
13319;SDS011;59599;47.608;12.190;2023-12-28T11:53:36;6.60;;;3.33;;
13319;SDS011;59599;47.608;12.190;2023-12-28T11:56:03;4.67;;;2.80;;
13319;SDS011;59599;47.608;12.190;2023-12-28T11:58:34;6.50;;;2.70;;
13319;SDS011;59599;47.608;12.190;2023-12-28T12:01:00;3.33;;;2.60;;
13319;SDS011;59599;47.608;12.190;2023-12-28T12:03:27;5.63;;;3.00;;
13319;SDS011;59599;47.608;12.190;2023-12-28T12:05:55;4.60;;;3.03;;
13319;SDS011;59599;47.608;12.190;2023-12-28T12:08:22;4.73;;;3.23;;
13319;SDS011;59599;47.608;12.190;2023-12-28T12:10:48;4.13;;;2.93;;
13319;SDS011;59599;47.608;12.190;2023-12-28T12:13:14;3.63;;;3.03;;
13319;SDS011;59599;47.608;12.190;2023-12-28T12:15:40;3.67;;;2.70;;
13319;SDS011;59599;47.608;12.190;2023-12-28T12:18:06;8.43;;;3.40;;
13319;SDS011;59599;47.608;12.190;2023-12-28T12:20:32;5.77;;;3.13;;
13319;SDS011;59599;47.608;12.190;2023-12-28T12:22:59;4.10;;;2.67;;
13319;SDS011;59599;47.608;12.190;2023-12-28T12:25:25;3.50;;;2.73;;
13319;SDS011;59599;47.608;12.190;2023-12-28T12:27:51;4.23;;;2.67;;
13319;SDS011;59599;47.608;12.190;2023-12-28T12:30:18;6.33;;;2.80;;
13319;SDS011;59599;47.608;12.190;2023-12-28T12:32:44;3.70;;;2.63;;
13319;SDS011;59599;47.608;12.190;2023-12-28T12:35:10;6.73;;;3.23;;
13319;SDS011;59599;47.608;12.190;2023-12-28T12:37:37;9.07;;;3.20;;
13319;SDS011;59599;47.608;12.190;2023-12-28T12:40:03;3.53;;;2.73;;
13319;SDS011;59599;47.608;12.190;2023-12-28T12:42:30;5.57;;;3.00;;
13319;SDS011;59599;47.608;12.190;2023-12-28T12:44:56;4.13;;;2.80;;
13319;SDS011;59599;47.608;12.190;2023-12-28T12:47:25;10.77;;;3.27;;
13319;SDS011;59599;47.608;12.190;2023-12-28T12:49:57;6.37;;;4.00;;
13319;SDS011;59599;47.608;12.190;2023-12-28T12:52:25;5.50;;;3.73;;
13319;SDS011;59599;47.608;12.190;2023-12-28T12:54:55;5.13;;;3.40;;
13319;SDS011;59599;47.608;12.190;2023-12-28T12:57:22;3.67;;;2.60;;
13319;SDS011;59599;47.608;12.190;2023-12-28T12:59:48;4.67;;;2.87;;
13319;SDS011;59599;47.608;12.190;2023-12-28T13:02:15;4.53;;;2.50;;
13319;SDS011;59599;47.608;12.190;2023-12-28T13:04:41;8.37;;;3.47;;
13319;SDS011;59599;47.608;12.190;2023-12-28T13:07:07;3.80;;;2.60;;
13319;SDS011;59599;47.608;12.190;2023-12-28T13:09:34;5.37;;;3.83;;
13319;SDS011;59599;47.608;12.190;2023-12-28T13:12:00;2.90;;;2.40;;
13319;SDS011;59599;47.608;12.190;2023-12-28T13:14:28;4.03;;;2.50;;
13319;SDS011;59599;47.608;12.190;2023-12-28T13:16:54;3.13;;;2.20;;
13319;SDS011;59599;47.608;12.190;2023-12-28T13:19:20;3.53;;;2.50;;
13319;SDS011;59599;47.608;12.190;2023-12-28T13:21:46;5.00;;;3.27;;
13319;SDS011;59599;47.608;12.190;2023-12-28T13:24:12;8.77;;;2.90;;
13319;SDS011;59599;47.608;12.190;2023-12-28T13:26:38;5.23;;;3.33;;
13319;SDS011;59599;47.608;12.190;2023-12-28T13:29:04;3.83;;;2.70;;
13319;SDS011;59599;47.608;12.190;2023-12-28T13:31:30;4.10;;;2.70;;
13319;SDS011;59599;47.608;12.190;2023-12-28T13:33:56;5.80;;;2.60;;
13319;SDS011;59599;47.608;12.190;2023-12-28T13:36:23;3.67;;;2.73;;
13319;SDS011;59599;47.608;12.190;2023-12-28T13:38:51;3.63;;;2.70;;
13319;SDS011;59599;47.608;12.190;2023-12-28T13:41:17;6.27;;;3.57;;
13319;SDS011;59599;47.608;12.190;2023-12-28T13:43:43;6.50;;;3.90;;
13319;SDS011;59599;47.608;12.190;2023-12-28T13:46:09;6.95;;;4.18;;
13319;SDS011;59599;47.608;12.190;2023-12-28T13:48:35;6.93;;;3.30;;
13319;SDS011;59599;47.608;12.190;2023-12-28T13:51:03;6.20;;;3.20;;
13319;SDS011;59599;47.608;12.190;2023-12-28T13:53:29;10.17;;;3.67;;
13319;SDS011;59599;47.608;12.190;2023-12-28T13:55:56;6.37;;;3.63;;
13319;SDS011;59599;47.608;12.190;2023-12-28T13:58:22;5.87;;;3.50;;
13319;SDS011;59599;47.608;12.190;2023-12-28T14:00:48;5.87;;;3.90;;
13319;SDS011;59599;47.608;12.190;2023-12-28T14:03:14;5.90;;;4.10;;
13319;SDS011;59599;47.608;12.190;2023-12-28T14:05:40;8.57;;;3.90;;
13319;SDS011;59599;47.608;12.190;2023-12-28T14:08:07;9.63;;;4.20;;
13319;SDS011;59599;47.608;12.190;2023-12-28T14:10:33;6.40;;;4.80;;
13319;SDS011;59599;47.608;12.190;2023-12-28T14:13:01;7.43;;;4.13;;
13319;SDS011;59599;47.608;12.190;2023-12-28T14:15:27;6.80;;;3.90;;
13319;SDS011;59599;47.608;12.190;2023-12-28T14:17:53;5.43;;;3.97;;
13319;SDS011;59599;47.608;12.190;2023-12-28T14:20:19;10.00;;;4.77;;
13319;SDS011;59599;47.608;12.190;2023-12-28T14:22:45;6.53;;;4.00;;
13319;SDS011;59599;47.608;12.190;2023-12-28T14:25:11;7.43;;;3.87;;
13319;SDS011;59599;47.608;12.190;2023-12-28T14:27:38;11.20;;;4.63;;
13319;SDS011;59599;47.608;12.190;2023-12-28T14:30:04;25.77;;;11.30;;
13319;SDS011;59599;47.608;12.190;2023-12-28T14:32:31;22.87;;;11.27;;
13319;SDS011;59599;47.608;12.190;2023-12-28T14:34:57;16.83;;;8.60;;
13319;SDS011;59599;47.608;12.190;2023-12-28T14:37:23;10.13;;;5.17;;
13319;SDS011;59599;47.608;12.190;2023-12-28T14:39:49;8.17;;;5.40;;
13319;SDS011;59599;47.608;12.190;2023-12-28T14:42:15;9.63;;;5.97;;
13319;SDS011;59599;47.608;12.190;2023-12-28T14:44:41;10.97;;;5.90;;
13319;SDS011;59599;47.608;12.190;2023-12-28T14:47:07;13.40;;;6.17;;
13319;SDS011;59599;47.608;12.190;2023-12-28T14:49:33;7.63;;;5.67;;
13319;SDS011;59599;47.608;12.190;2023-12-28T14:51:59;7.03;;;4.93;;
13319;SDS011;59599;47.608;12.190;2023-12-28T14:54:25;6.63;;;4.17;;
13319;SDS011;59599;47.608;12.190;2023-12-28T14:56:51;7.07;;;4.77;;
13319;SDS011;59599;47.608;12.190;2023-12-28T14:59:17;7.50;;;4.60;;
13319;SDS011;59599;47.608;12.190;2023-12-28T15:01:43;7.27;;;5.57;;
13319;SDS011;59599;47.608;12.190;2023-12-28T15:04:09;9.97;;;5.97;;
13319;SDS011;59599;47.608;12.190;2023-12-28T15:06:35;9.13;;;5.40;;
13319;SDS011;59599;47.608;12.190;2023-12-28T15:09:01;8.63;;;5.37;;
13319;SDS011;59599;47.608;12.190;2023-12-28T15:11:27;10.17;;;5.97;;
13319;SDS011;59599;47.608;12.190;2023-12-28T15:13:53;8.20;;;5.63;;
13319;SDS011;59599;47.608;12.190;2023-12-28T15:16:19;13.30;;;6.30;;
13319;SDS011;59599;47.608;12.190;2023-12-28T15:18:45;9.10;;;5.13;;
13319;SDS011;59599;47.608;12.190;2023-12-28T15:21:11;11.87;;;5.43;;
13319;SDS011;59599;47.608;12.190;2023-12-28T15:23:37;19.70;;;7.17;;
13319;SDS011;59599;47.608;12.190;2023-12-28T15:26:04;14.77;;;7.30;;
13319;SDS011;59599;47.608;12.190;2023-12-28T15:28:31;17.33;;;8.10;;
13319;SDS011;59599;47.608;12.190;2023-12-28T15:30:57;16.50;;;8.07;;
13319;SDS011;59599;47.608;12.190;2023-12-28T15:33:22;12.27;;;7.53;;
13319;SDS011;59599;47.608;12.190;2023-12-28T15:35:48;81.80;;;26.90;;
13319;SDS011;59599;47.608;12.190;2023-12-28T15:38:14;44.67;;;18.13;;
13319;SDS011;59599;47.608;12.190;2023-12-28T15:40:41;37.63;;;15.83;;
13319;SDS011;59599;47.608;12.190;2023-12-28T15:43:07;33.00;;;16.07;;
13319;SDS011;59599;47.608;12.190;2023-12-28T15:45:34;29.50;;;15.67;;
13319;SDS011;59599;47.608;12.190;2023-12-28T15:48:00;23.73;;;12.60;;
13319;SDS011;59599;47.608;12.190;2023-12-28T15:50:26;15.77;;;10.23;;
13319;SDS011;59599;47.608;12.190;2023-12-28T15:52:51;17.07;;;9.53;;
13319;SDS011;59599;47.608;12.190;2023-12-28T15:55:17;16.67;;;8.93;;
13319;SDS011;59599;47.608;12.190;2023-12-28T15:57:43;15.40;;;8.50;;
13319;SDS011;59599;47.608;12.190;2023-12-28T16:00:10;14.37;;;8.53;;
13319;SDS011;59599;47.608;12.190;2023-12-28T16:02:36;15.03;;;8.60;;
13319;SDS011;59599;47.608;12.190;2023-12-28T16:05:02;19.50;;;9.60;;
13319;SDS011;59599;47.608;12.190;2023-12-28T16:07:28;25.17;;;10.43;;
13319;SDS011;59599;47.608;12.190;2023-12-28T16:09:53;15.87;;;6.70;;
13319;SDS011;59599;47.608;12.190;2023-12-28T16:12:20;17.33;;;8.17;;
13319;SDS011;59599;47.608;12.190;2023-12-28T16:14:46;17.27;;;9.43;;
13319;SDS011;59599;47.608;12.190;2023-12-28T16:17:12;18.50;;;10.53;;
13319;SDS011;59599;47.608;12.190;2023-12-28T16:19:38;17.53;;;9.40;;
13319;SDS011;59599;47.608;12.190;2023-12-28T16:22:05;18.23;;;9.03;;
13319;SDS011;59599;47.608;12.190;2023-12-28T16:24:31;23.93;;;13.33;;
13319;SDS011;59599;47.608;12.190;2023-12-28T16:26:57;19.97;;;11.07;;
13319;SDS011;59599;47.608;12.190;2023-12-28T16:29:23;21.53;;;14.07;;
13319;SDS011;59599;47.608;12.190;2023-12-28T16:31:49;15.90;;;11.30;;
13319;SDS011;59599;47.608;12.190;2023-12-28T16:34:15;16.43;;;9.37;;
13319;SDS011;59599;47.608;12.190;2023-12-28T16:36:41;18.77;;;11.80;;
13319;SDS011;59599;47.608;12.190;2023-12-28T16:39:07;23.23;;;14.37;;
13319;SDS011;59599;47.608;12.190;2023-12-28T16:41:33;13.87;;;7.83;;
13319;SDS011;59599;47.608;12.190;2023-12-28T16:43:59;13.03;;;7.80;;
13319;SDS011;59599;47.608;12.190;2023-12-28T16:46:25;17.93;;;8.87;;
13319;SDS011;59599;47.608;12.190;2023-12-28T16:48:51;15.23;;;7.83;;
13319;SDS011;59599;47.608;12.190;2023-12-28T16:51:17;23.73;;;14.37;;
13319;SDS011;59599;47.608;12.190;2023-12-28T16:53:43;25.70;;;15.23;;
13319;SDS011;59599;47.608;12.190;2023-12-28T16:56:09;22.43;;;12.10;;
13319;SDS011;59599;47.608;12.190;2023-12-28T16:58:35;19.97;;;11.97;;
13319;SDS011;59599;47.608;12.190;2023-12-28T17:01:01;15.50;;;9.13;;
13319;SDS011;59599;47.608;12.190;2023-12-28T17:03:27;13.90;;;9.40;;
13319;SDS011;59599;47.608;12.190;2023-12-28T17:05:53;13.90;;;9.23;;
13319;SDS011;59599;47.608;12.190;2023-12-28T17:08:18;16.70;;;10.30;;
13319;SDS011;59599;47.608;12.190;2023-12-28T17:10:45;14.03;;;9.10;;
13319;SDS011;59599;47.608;12.190;2023-12-28T17:13:11;14.23;;;8.30;;
13319;SDS011;59599;47.608;12.190;2023-12-28T17:15:37;12.40;;;8.03;;
13319;SDS011;59599;47.608;12.190;2023-12-28T17:18:05;13.80;;;8.00;;
13319;SDS011;59599;47.608;12.190;2023-12-28T17:20:34;13.07;;;8.03;;
13319;SDS011;59599;47.608;12.190;2023-12-28T17:23:06;13.30;;;7.70;;
13319;SDS011;59599;47.608;12.190;2023-12-28T17:25:39;15.47;;;7.70;;
13319;SDS011;59599;47.608;12.190;2023-12-28T17:28:19;21.73;;;14.07;;
13319;SDS011;59599;47.608;12.190;2023-12-28T17:30:48;19.63;;;11.63;;
13319;SDS011;59599;47.608;12.190;2023-12-28T17:33:17;19.77;;;12.77;;
13319;SDS011;59599;47.608;12.190;2023-12-28T17:35:45;28.20;;;17.80;;
13319;SDS011;59599;47.608;12.190;2023-12-28T17:38:11;26.30;;;13.83;;
13319;SDS011;59599;47.608;12.190;2023-12-28T17:40:37;17.17;;;10.30;;
13319;SDS011;59599;47.608;12.190;2023-12-28T17:43:12;14.00;;;8.13;;
13319;SDS011;59599;47.608;12.190;2023-12-28T17:46:24;17.23;;;11.67;;
13319;SDS011;59599;47.608;12.190;2023-12-28T17:48:31;23.47;;;11.23;;
13319;SDS011;59599;47.608;12.190;2023-12-28T17:50:59;18.40;;;11.50;;
13319;SDS011;59599;47.608;12.190;2023-12-28T17:53:26;20.30;;;12.57;;
13319;SDS011;59599;47.608;12.190;2023-12-28T17:55:52;21.50;;;12.87;;
13319;SDS011;59599;47.608;12.190;2023-12-28T17:58:18;24.67;;;11.90;;
13319;SDS011;59599;47.608;12.190;2023-12-28T18:00:43;17.07;;;10.13;;
13319;SDS011;59599;47.608;12.190;2023-12-28T18:03:09;18.47;;;11.33;;
13319;SDS011;59599;47.608;12.190;2023-12-28T18:05:35;57.93;;;22.70;;
13319;SDS011;59599;47.608;12.190;2023-12-28T18:08:01;91.50;;;34.73;;
13319;SDS011;59599;47.608;12.190;2023-12-28T18:10:27;23.07;;;10.63;;
13319;SDS011;59599;47.608;12.190;2023-12-28T18:12:53;21.93;;;11.47;;
13319;SDS011;59599;47.608;12.190;2023-12-28T18:15:19;52.57;;;21.33;;
13319;SDS011;59599;47.608;12.190;2023-12-28T18:17:45;45.90;;;19.90;;
13319;SDS011;59599;47.608;12.190;2023-12-28T18:20:11;31.97;;;16.83;;
13319;SDS011;59599;47.608;12.190;2023-12-28T18:22:38;63.90;;;28.17;;
13319;SDS011;59599;47.608;12.190;2023-12-28T18:25:04;53.53;;;24.90;;
13319;SDS011;59599;47.608;12.190;2023-12-28T18:27:30;28.17;;;15.03;;
13319;SDS011;59599;47.608;12.190;2023-12-28T18:29:56;15.70;;;9.43;;
13319;SDS011;59599;47.608;12.190;2023-12-28T18:32:22;10.27;;;6.53;;
13319;SDS011;59599;47.608;12.190;2023-12-28T18:34:48;13.00;;;5.90;;
13319;SDS011;59599;47.608;12.190;2023-12-28T18:37:16;40.90;;;17.50;;
13319;SDS011;59599;47.608;12.190;2023-12-28T18:39:42;35.77;;;17.70;;
13319;SDS011;59599;47.608;12.190;2023-12-28T18:42:08;20.20;;;11.80;;
13319;SDS011;59599;47.608;12.190;2023-12-28T18:44:34;35.20;;;18.83;;
13319;SDS011;59599;47.608;12.190;2023-12-28T18:47:02;26.27;;;13.97;;
13319;SDS011;59599;47.608;12.190;2023-12-28T18:49:28;28.90;;;15.50;;
13319;SDS011;59599;47.608;12.190;2023-12-28T18:51:54;13.43;;;7.67;;
13319;SDS011;59599;47.608;12.190;2023-12-28T18:54:20;14.33;;;8.07;;
13319;SDS011;59599;47.608;12.190;2023-12-28T18:56:46;13.47;;;8.90;;
13319;SDS011;59599;47.608;12.190;2023-12-28T18:59:12;22.03;;;9.97;;
13319;SDS011;59599;47.608;12.190;2023-12-28T19:01:38;20.50;;;9.00;;
13319;SDS011;59599;47.608;12.190;2023-12-28T19:04:04;16.70;;;8.07;;
13319;SDS011;59599;47.608;12.190;2023-12-28T19:06:30;14.53;;;7.80;;
13319;SDS011;59599;47.608;12.190;2023-12-28T19:08:56;17.47;;;9.07;;
13319;SDS011;59599;47.608;12.190;2023-12-28T19:11:24;12.50;;;7.97;;
13319;SDS011;59599;47.608;12.190;2023-12-28T19:13:50;14.47;;;7.53;;
13319;SDS011;59599;47.608;12.190;2023-12-28T19:16:20;14.57;;;7.93;;
13319;SDS011;59599;47.608;12.190;2023-12-28T19:18:47;9.60;;;6.53;;
13319;SDS011;59599;47.608;12.190;2023-12-28T19:21:19;10.17;;;6.40;;
13319;SDS011;59599;47.608;12.190;2023-12-28T19:23:45;11.33;;;6.97;;
13319;SDS011;59599;47.608;12.190;2023-12-28T19:26:12;13.40;;;7.17;;
13319;SDS011;59599;47.608;12.190;2023-12-28T19:28:43;16.33;;;7.73;;
13319;SDS011;59599;47.608;12.190;2023-12-28T19:31:09;12.40;;;7.90;;